Time;durP1;ratioP1;P1;durP2;ratioP2;P2;SDS_P1;SDS_P2;PMS_P1;PMS_P2;Temp;Humidity;BMP_temperature;BMP_pressure;BME280_temperature;BME280_humidity;BME280_pressure;Samples;Min_cycle;Max_cycle;Signal;HPM_P1;HPM_P2
2022/09/29 00:01:29;;;;;;;44.42;21.55;;;;;;;5.85;100.00;99384.84;5013895;28;20137;-75
2022/09/29 00:03:55;;;;;;;52.15;23.30;;;;;;;5.99;100.00;99383.38;5006632;28;20415;-75
2022/09/29 00:06:20;;;;;;;35.23;18.90;;;;;;;5.97;100.00;99379.22;5015221;28;20057;-75
2022/09/29 00:08:46;;;;;;;43.37;24.77;;;;;;;6.09;100.00;99384.03;5017694;28;20034;-75
2022/09/29 00:11:14;;;;;;;49.97;23.97;;;;;;;6.25;100.00;99392.94;5011532;28;20125;-76
2022/09/29 00:13:40;;;;;;;46.42;22.55;;;;;;;6.19;100.00;99381.22;5008147;28;20297;-75
2022/09/29 00:16:06;;;;;;;42.80;22.85;;;;;;;6.10;100.00;99380.38;5006318;28;20029;-75
2022/09/29 00:18:33;;;;;;;40.58;21.55;;;;;;;6.04;100.00;99374.91;5012662;28;20113;-75
2022/09/29 00:21:14;;;;;;;41.88;22.70;;;;;;;5.98;100.00;99375.59;5011991;28;20210;-75
2022/09/29 00:23:40;;;;;;;42.83;21.40;;;;;;;5.96;100.00;99372.28;5008068;28;20026;-75
2022/09/29 00:26:12;;;;;;;39.13;21.05;;;;;;;5.96;100.00;99373.13;5008892;28;20509;-75
2022/09/29 00:28:40;;;;;;;43.42;21.70;;;;;;;5.92;100.00;99364.66;5011989;28;20030;-75
2022/09/29 00:31:07;;;;;;;31.63;18.20;;;;;;;5.88;100.00;99368.63;5013070;28;20044;-75
2022/09/29 00:33:35;;;;;;;41.25;22.15;;;;;;;5.89;100.00;99370.25;5009238;28;20026;-75
2022/09/29 00:36:04;;;;;;;43.10;23.48;;;;;;;5.97;100.00;99371.28;5001972;28;20033;-75
2022/09/29 00:38:31;;;;;;;43.97;21.70;;;;;;;5.99;100.00;99378.06;5013160;28;20050;-75
2022/09/29 00:40:56;;;;;;;37.90;20.63;;;;;;;5.92;100.00;99371.75;5010749;28;20395;-75
2022/09/29 00:43:43;;;;;;;48.70;24.38;;;;;;;5.89;100.00;99370.25;5009797;28;20030;-75
2022/09/29 00:46:11;;;;;;;42.88;20.35;;;;;;;5.80;100.00;99363.31;5015002;28;20033;-75
2022/09/29 00:48:37;;;;;;;47.03;24.92;;;;;;;5.83;100.00;99363.00;5006400;28;20042;-75
2022/09/29 00:51:03;;;;;;;45.83;23.00;;;;;;;5.89;100.00;99357.00;5015035;28;20029;-75
2022/09/29 00:53:28;;;;;;;43.50;22.77;;;;;;;5.97;100.00;99369.47;5008686;28;20047;-75
2022/09/29 00:56:03;;;;;;;51.35;24.15;;;;;;;6.08;100.00;99369.13;5021213;28;20037;-75
2022/09/29 00:58:39;;;;;;;53.30;26.23;;;;;;;6.23;100.00;99374.59;5076421;22;20056;-78
2022/09/29 01:01:05;;;;;;;;;;;;;;;6.30;100.00;99378.22;5040294;28;20041;-78
2022/09/29 01:03:32;;;;;;;;;;;;;;;6.29;100.00;99379.19;5043416;28;19920;-78
2022/09/29 01:06:01;;;;;;;47.78;26.40;;;;;;;6.34;100.00;99384.00;5016752;28;20316;-78
2022/09/29 01:08:41;;;;;;;53.88;26.52;;;;;;;6.46;100.00;99384.47;5017427;28;20035;-78
2022/09/29 01:11:10;;;;;;;53.63;27.08;;;;;;;6.58;100.00;99387.59;5007134;28;20033;-77
2022/09/29 01:13:36;;;;;;;53.85;27.88;;;;;;;6.60;100.00;99393.56;5010251;28;20041;-78
2022/09/29 01:16:01;;;;;;;54.35;27.65;;;;;;;6.61;100.00;99388.09;5000692;28;20080;-78
2022/09/29 01:18:27;;;;;;;59.80;28.10;;;;;;;6.59;100.00;99386.59;5013203;28;20025;-78
2022/09/29 01:21:25;;;;;;;57.47;28.25;;;;;;;6.62;100.00;99386.25;5009328;28;20494;-78
2022/09/29 01:23:57;;;;;;;50.97;25.77;;;;;;;6.60;100.00;99381.13;5013250;28;20423;-77
2022/09/29 01:26:57;;;;;;;51.85;26.55;;;;;;;6.66;100.00;99382.28;5032507;28;20041;-78
2022/09/29 01:29:53;;;;;;;52.67;25.08;;;;;;;6.66;100.00;99375.16;5024601;28;20037;-78
2022/09/29 01:32:28;;;;;;;50.70;24.98;;;;;;;6.67;100.00;99382.13;5023955;28;20048;-78
2022/09/29 01:35:30;;;;;;;52.92;24.98;;;;;;;6.71;100.00;99390.53;5026215;28;20036;-78
2022/09/29 01:38:05;;;;;;;48.90;23.65;;;;;;;6.71;100.00;99385.25;5017272;28;20040;-77
2022/09/29 01:40:43;;;;;;;42.80;23.50;;;;;;;6.74;100.00;99382.25;5021805;28;20040;-78
2022/09/29 01:43:22;;;;;;;54.20;24.23;;;;;;;6.76;100.00;99380.25;5023454;28;20068;-78
2022/09/29 01:46:00;;;;;;;46.75;24.13;;;;;;;6.76;100.00;99364.34;5014868;28;20083;-78
2022/09/29 01:48:31;;;;;;;43.08;22.70;;;;;;;6.75;100.00;99365.34;5012494;28;20044;-77
2022/09/29 01:51:03;;;;;;;48.22;23.75;;;;;;;6.75;100.00;99358.19;5006849;28;20387;-76
2022/09/29 01:53:49;;;;;;;48.10;24.38;;;;;;;6.75;100.00;99352.06;5029874;28;20034;-77
2022/09/29 01:56:24;;;;;;;41.10;22.88;;;;;;;6.76;100.00;99359.03;5025866;28;20033;-77
2022/09/29 01:59:03;;;;;;;44.80;23.25;;;;;;;6.75;100.00;99357.38;5029167;28;20033;-77
2022/09/29 02:01:33;;;;;;;42.95;22.08;;;;;;;6.78;100.00;99359.69;4994754;28;20041;-77
2022/09/29 02:04:31;;;;;;;49.30;24.40;;;;;;;6.85;100.00;99362.47;5028235;28;20026;-78
2022/09/29 02:07:04;;;;;;;50.28;23.75;;;;;;;6.84;100.00;99352.88;5004029;28;20045;-77
2022/09/29 02:09:37;;;;;;;43.38;23.15;;;;;;;6.87;100.00;99355.19;5024204;28;20053;-77
2022/09/29 02:12:06;;;;;;;51.72;25.63;;;;;;;6.84;100.00;99358.19;5009274;28;20038;-78
2022/09/29 02:14:38;;;;;;;50.83;24.75;;;;;;;6.85;100.00;99357.19;5005340;28;20048;-78
2022/09/29 02:17:18;;;;;;;51.22;26.15;;;;;;;6.81;100.00;99353.19;5008502;28;20152;-77
2022/09/29 02:19:45;;;;;;;47.20;24.95;;;;;;;6.83;100.00;99351.22;5030666;28;20029;-79
2022/09/29 02:22:11;;;;;;;45.75;22.58;;;;;;;6.92;100.00;99352.81;4995414;28;20021;-77
2022/09/29 02:24:36;;;;;;;48.95;26.35;;;;;;;6.84;100.00;99335.13;5022981;28;20079;-78
2022/09/29 02:27:02;;;;;;;49.17;24.40;;;;;;;6.87;100.00;99340.09;5015998;28;20110;-80
2022/09/29 02:29:28;;;;;;;49.78;24.98;;;;;;;6.89;100.00;99340.75;5020519;28;20296;-79
2022/09/29 02:31:56;;;;;;;47.78;24.15;;;;;;;6.88;100.00;99340.91;4997028;28;20033;-78
2022/09/29 02:34:22;;;;;;;43.97;24.10;;;;;;;6.81;100.00;99339.94;5015305;28;20049;-78
2022/09/29 02:37:08;;;;;;;52.33;25.25;;;;;;;6.86;100.00;99341.09;4997449;28;20068;-78
2022/09/29 02:39:48;;;;;;;51.38;25.02;;;;;;;6.86;100.00;99337.59;5014138;28;20091;-78
2022/09/29 02:42:42;;;;;;;55.03;25.50;;;;;;;6.90;100.00;99345.03;5014240;28;20026;-77
2022/09/29 02:45:18;;;;;;;47.80;24.98;;;;;;;6.85;100.00;99339.41;5013055;28;20038;-78
2022/09/29 02:47:54;;;;;;;57.75;26.92;;;;;;;6.89;100.00;99348.69;5018735;28;20034;-77
2022/09/29 02:50:47;;;;;;;54.22;25.35;;;;;;;6.84;100.00;99335.13;5014761;28;20120;-79
2022/09/29 02:53:36;;;;;;;57.28;27.42;;;;;;;6.89;100.00;99345.22;5018607;28;20044;-79
2022/09/29 02:56:24;;;;;;;61.30;25.63;;;;;;;6.88;100.00;99340.91;5013995;28;20034;-77
2022/09/29 02:59:01;;;;;;;63.55;27.02;;;;;;;6.80;100.00;99339.13;4996053;28;20029;-79
2022/09/29 03:01:31;;;;;;;60.50;26.88;;;;;;;6.79;100.00;99336.63;5014673;28;20025;-77
2022/09/29 03:03:57;;;;;;;52.42;26.30;;;;;;;6.80;100.00;99340.94;5012135;28;20037;-78
2022/09/29 03:06:22;;;;;;;53.65;25.95;;;;;;;6.71;100.00;99330.34;5014202;28;20046;-76
2022/09/29 03:08:47;;;;;;;56.57;26.37;;;;;;;6.70;100.00;99323.41;5005120;28;20029;-78
2022/09/29 03:11:13;;;;;;;60.70;26.73;;;;;;;6.67;100.00;99333.53;5012885;28;20026;-78
2022/09/29 03:13:38;;;;;;;58.50;25.97;;;;;;;6.58;100.00;99316.00;4997739;28;20033;-77
2022/09/29 03:16:03;;;;;;;60.03;24.53;;;;;;;6.59;100.00;99323.78;4995486;28;20033;-76
2022/09/29 03:18:29;;;;;;;48.73;23.57;;;;;;;6.67;100.00;99329.06;5004051;28;20036;-77
2022/09/29 03:20:54;;;;;;;58.87;26.40;;;;;;;6.66;100.00;99343.31;4995370;28;20596;-77
2022/09/29 03:23:20;;;;;;;58.60;25.80;;;;;;;6.62;100.00;99334.03;5001829;28;20537;-77
2022/09/29 03:25:45;;;;;;;54.38;24.38;;;;;;;6.65;100.00;99332.88;4996436;28;20025;-77
2022/09/29 03:28:10;;;;;;;61.03;26.07;;;;;;;6.71;100.00;99340.97;5014585;28;20036;-77
2022/09/29 03:30:36;;;;;;;48.33;23.50;;;;;;;6.65;100.00;99339.03;4998210;28;20052;-78
2022/09/29 03:33:01;;;;;;;58.07;26.80;;;;;;;6.68;100.00;99338.66;5011818;28;20065;-77
2022/09/29 03:35:27;;;;;;;57.43;26.13;;;;;;;6.67;100.00;99344.13;5014644;28;20383;-78
2022/09/29 03:37:57;;;;;;;51.27;24.67;;;;;;;6.66;100.00;99339.84;4979498;28;20032;-78
2022/09/29 03:40:22;;;;;;;53.92;26.23;;;;;;;6.66;100.00;99337.19;5014329;28;20184;-77
2022/09/29 03:42:47;;;;;;;44.03;22.80;;;;;;;6.63;100.00;99340.19;4996257;28;20108;-77
2022/09/29 03:45:13;;;;;;;51.73;24.17;;;;;;;6.53;100.00;99338.56;5013017;28;20107;-78
2022/09/29 03:47:38;;;;;;;53.83;23.00;;;;;;;6.50;100.00;99343.38;4997535;28;20041;-78
2022/09/29 03:50:04;;;;;;;48.30;23.30;;;;;;;6.48;100.00;99340.06;4998365;28;20239;-77
2022/09/29 03:52:29;;;;;;;46.72;23.33;;;;;;;6.42;100.00;99330.97;5016338;28;21039;-78
2022/09/29 03:54:55;;;;;;;53.03;22.67;;;;;;;6.32;100.00;99323.22;4997869;28;20046;-77
2022/09/29 03:57:20;;;;;;;46.90;22.20;;;;;;;6.34;100.00;99333.63;5017164;28;20030;-78
2022/09/29 03:59:45;;;;;;;58.53;24.37;;;;;;;6.38;100.00;99336.78;4999950;28;20079;-77
2022/09/29 04:02:11;;;;;;;53.53;24.67;;;;;;;6.33;100.00;99338.13;5007832;28;20033;-79
2022/09/29 04:04:36;;;;;;;53.95;26.35;;;;;;;6.41;100.00;99349.69;5001621;28;20059;-77
2022/09/29 04:07:02;;;;;;;56.53;26.57;;;;;;;6.44;100.00;99355.50;5002800;28;20022;-78
2022/09/29 04:09:27;;;;;;;65.30;29.13;;;;;;;6.38;100.00;99350.03;5001921;28;20029;-78
2022/09/29 04:11:52;;;;;;;56.77;28.97;;;;;;;6.38;100.00;99363.28;4999146;28;20285;-77
2022/09/29 04:14:18;;;;;;;71.27;29.57;;;;;;;6.43;100.00;99366.25;5000278;28;20493;-78
2022/09/29 04:16:43;;;;;;;67.37;30.73;;;;;;;6.40;100.00;99364.78;5002361;28;20269;-78
2022/09/29 04:19:09;;;;;;;67.97;30.83;;;;;;;6.43;100.00;99361.78;5001797;28;20033;-78
2022/09/29 04:21:34;;;;;;;60.47;27.63;;;;;;;6.45;100.00;99361.63;5017232;28;20045;-77
2022/09/29 04:23:59;;;;;;;68.70;29.90;;;;;;;6.41;100.00;99362.94;5014884;28;20026;-76
2022/09/29 04:26:25;;;;;;;66.90;29.17;;;;;;;6.38;100.00;99363.28;5005303;28;20040;-76
2022/09/29 04:28:50;;;;;;;69.43;32.40;;;;;;;6.46;100.00;99379.16;4998871;28;20037;-77
2022/09/29 04:31:15;;;;;;;67.60;28.13;;;;;;;6.38;100.00;99371.25;5016690;28;20064;-78
2022/09/29 04:33:41;;;;;;;65.53;29.27;;;;;;;6.39;100.00;99371.09;5019295;28;20040;-78
2022/09/29 04:36:07;;;;;;;60.67;28.27;;;;;;;6.44;100.00;99378.50;5001733;28;20030;-78
2022/09/29 04:38:32;;;;;;;59.72;28.67;;;;;;;6.38;100.00;99376.56;5001544;28;20064;-78
2022/09/29 04:40:57;;;;;;;68.10;29.53;;;;;;;6.34;100.00;99363.63;5014970;28;20022;-78
2022/09/29 04:43:23;;;;;;;63.40;28.27;;;;;;;6.37;100.00;99374.88;5020219;28;21068;-77
2022/09/29 04:45:48;;;;;;;63.27;28.37;;;;;;;6.34;100.00;99366.28;5019436;28;20055;-77
2022/09/29 04:48:14;;;;;;;67.97;29.57;;;;;;;6.33;100.00;99366.44;5020141;28;20080;-78
2022/09/29 04:50:40;;;;;;;60.53;27.92;;;;;;;6.33;100.00;99375.22;5007962;28;20042;-78
2022/09/29 04:53:06;;;;;;;73.43;31.92;;;;;;;6.33;100.00;99369.91;5018495;28;20029;-77
2022/09/29 04:55:32;;;;;;;73.95;30.63;;;;;;;6.27;100.00;99362.63;5021609;28;20435;-77
2022/09/29 04:57:57;;;;;;;71.07;31.30;;;;;;;6.36;100.00;99373.25;5017587;28;20038;-77
2022/09/29 05:00:23;;;;;;;71.33;31.30;;;;;;;6.36;100.00;99365.28;5003603;28;20060;-78
2022/09/29 05:02:48;;;;;;;65.25;28.42;;;;;;;6.32;100.00;99367.44;4985693;28;20040;-78
2022/09/29 05:05:14;;;;;;;74.27;31.17;;;;;;;6.29;100.00;99368.59;5002919;28;20044;-78
2022/09/29 05:07:40;;;;;;;65.73;29.57;;;;;;;6.33;100.00;99377.06;5003328;28;20064;-78
2022/09/29 05:10:07;;;;;;;78.15;33.40;;;;;;;6.33;100.00;99377.88;4985202;28;20061;-77
2022/09/29 05:12:33;;;;;;;73.25;32.60;;;;;;;6.34;100.00;99376.91;5004813;28;20068;-77
2022/09/29 05:14:58;;;;;;;83.13;33.20;;;;;;;6.34;100.00;99371.59;5005445;28;20073;-77
2022/09/29 05:17:23;;;;;;;70.20;28.87;;;;;;;6.40;100.00;99380.69;5003760;28;20433;-77
2022/09/29 05:19:49;;;;;;;71.80;31.60;;;;;;;6.43;100.00;99387.47;5002680;28;20496;-78
2022/09/29 05:22:14;;;;;;;72.07;31.20;;;;;;;6.40;100.00;99378.03;5035437;28;20200;-77
2022/09/29 05:24:40;;;;;;;75.57;31.80;;;;;;;6.44;100.00;99381.16;4987220;28;20056;-78
2022/09/29 05:27:05;;;;;;;75.83;33.57;;;;;;;6.44;100.00;99387.31;5017266;28;20025;-79
2022/09/29 05:29:30;;;;;;;68.53;33.55;;;;;;;6.39;100.00;99372.88;5004733;28;20022;-78
2022/09/29 05:31:56;;;;;;;79.47;32.87;;;;;;;6.48;100.00;99388.59;4999478;28;20455;-77
2022/09/29 05:34:21;;;;;;;72.37;32.37;;;;;;;6.50;100.00;99385.78;5003902;28;20128;-77
2022/09/29 05:36:47;;;;;;;73.25;31.20;;;;;;;6.49;100.00;99379.66;4998779;28;20052;-77
2022/09/29 05:39:12;;;;;;;77.63;31.67;;;;;;;6.45;100.00;99372.22;5003087;28;20044;-78
2022/09/29 05:41:38;;;;;;;76.90;32.15;;;;;;;6.47;100.00;99372.88;5015308;28;20029;-77
2022/09/29 05:44:03;;;;;;;77.03;33.40;;;;;;;6.51;100.00;99371.56;5015325;28;20034;-77
2022/09/29 05:46:29;;;;;;;76.37;33.57;;;;;;;6.53;100.00;99380.16;5013619;28;21218;-77
2022/09/29 05:48:54;;;;;;;77.20;33.43;;;;;;;6.53;100.00;99383.66;5014389;28;20167;-77
2022/09/29 05:51:22;;;;;;;70.72;31.77;;;;;;;6.48;100.00;99372.69;4998731;28;20284;-77
2022/09/29 05:53:47;;;;;;;71.35;32.25;;;;;;;6.50;100.00;99373.34;4998100;28;20406;-77
2022/09/29 05:56:15;;;;;;;72.33;33.67;;;;;;;6.58;100.00;99377.84;5014608;28;20041;-77
2022/09/29 05:58:41;;;;;;;70.93;31.67;;;;;;;6.63;100.00;99379.97;5016813;28;20084;-77
2022/09/29 06:01:12;;;;;;;78.45;33.10;;;;;;;6.67;100.00;99386.56;5013421;28;20089;-77
2022/09/29 06:03:38;;;;;;;70.35;33.47;;;;;;;6.67;100.00;99378.63;4982908;28;20056;-77
2022/09/29 06:06:12;;;;;;;73.97;31.95;;;;;;;6.71;100.00;99386.06;5012614;28;20061;-77
2022/09/29 06:08:38;;;;;;;70.22;32.97;;;;;;;6.74;100.00;99388.41;5017918;28;20402;-77
2022/09/29 06:11:08;;;;;;;72.68;30.75;;;;;;;6.68;100.00;99377.63;4996081;28;20250;-77
2022/09/29 06:13:37;;;;;;;75.88;33.75;;;;;;;6.65;100.00;99377.94;5016880;28;20057;-77
2022/09/29 06:16:02;;;;;;;74.65;33.28;;;;;;;6.57;100.00;99370.84;5017745;28;20498;-77
2022/09/29 06:18:29;;;;;;;79.17;34.63;;;;;;;6.66;100.00;99375.16;4995325;28;20037;-77
2022/09/29 06:21:09;;;;;;;65.20;30.83;;;;;;;6.71;100.00;99378.09;5012445;28;20076;-77
2022/09/29 06:23:34;;;;;;;69.60;33.28;;;;;;;6.78;100.00;99378.25;4996505;28;20849;-77
2022/09/29 06:26:03;;;;;;;69.28;33.83;;;;;;;6.85;100.00;99386.34;5012863;28;20052;-77
2022/09/29 06:28:29;;;;;;;68.10;32.05;;;;;;;6.85;100.00;99389.00;5012760;28;20038;-77
2022/09/29 06:30:59;;;;;;;63.22;29.83;;;;;;;6.92;100.00;99384.66;5013941;28;20107;-77
2022/09/29 06:33:28;;;;;;;59.75;28.42;;;;;;;6.87;100.00;99379.06;5020236;28;20049;-77
2022/09/29 06:38:39;;;;;;;60.03;30.13;;;;;;;6.95;100.00;99376.34;4996118;28;20120;-77
2022/09/29 06:41:05;;;;;;;54.27;27.97;;;;;;;7.05;100.00;99374.34;5012397;28;20148;-77
2022/09/29 06:43:31;;;;;;;61.60;28.90;;;;;;;7.13;100.00;99371.63;4999908;28;20272;-77
2022/09/29 06:45:56;;;;;;;63.50;28.08;;;;;;;7.26;100.00;99386.16;5000212;28;20482;-77
2022/09/29 06:48:22;;;;;;;63.23;29.87;;;;;;;7.21;100.00;99377.91;5021536;28;20033;-78
2022/09/29 06:50:47;;;;;;;64.53;27.67;;;;;;;7.33;100.00;99387.97;4996988;28;20387;-77
2022/09/29 06:53:13;;;;;;;43.07;21.07;;;;;;;7.33;100.00;99382.66;5013085;28;20141;-77
2022/09/29 06:55:38;;;;;;;39.53;20.05;;;;;;;7.49;100.00;99394.16;5014023;28;20030;-77
2022/09/29 06:58:04;;;;;;;41.07;21.43;;;;;;;7.60;100.00;99394.59;5012069;28;20065;-77
2022/09/29 07:00:30;;;;;;;41.60;21.57;;;;;;;7.64;100.00;99383.63;5015777;28;20478;-77
2022/09/29 07:02:55;;;;;;;36.47;21.45;;;;;;;7.66;100.00;99373.66;4995597;28;20022;-77
2022/09/29 07:05:20;;;;;;;37.47;21.47;;;;;;;7.66;100.00;99365.69;4997379;28;20092;-77
2022/09/29 07:07:49;;;;;;;39.37;21.30;;;;;;;7.72;100.00;99364.97;5014903;28;20083;-77
2022/09/29 07:10:14;;;;;;;41.92;21.13;;;;;;;7.80;100.00;99364.91;5012789;28;20652;-77
2022/09/29 07:12:40;;;;;;;41.05;21.40;;;;;;;7.76;100.00;99353.78;4981456;28;20034;-77
2022/09/29 07:15:06;;;;;;;39.53;21.25;;;;;;;7.77;100.00;99347.50;4995557;28;20444;-77
2022/09/29 07:17:31;;;;;;;40.97;20.98;;;;;;;7.75;100.00;99340.69;4982614;28;20071;-77
2022/09/29 07:19:57;;;;;;;39.43;22.23;;;;;;;7.69;100.00;99336.09;5012178;28;20486;-77
2022/09/29 07:22:23;;;;;;;38.80;21.67;;;;;;;7.63;100.00;99328.84;4998164;28;20412;-78
2022/09/29 07:24:49;;;;;;;37.77;20.93;;;;;;;7.66;100.00;99339.13;5018632;28;20029;-78
2022/09/29 07:27:18;;;;;;;39.58;22.50;;;;;;;7.68;100.00;99337.09;4997309;28;20152;-78
2022/09/29 07:29:43;;;;;;;42.65;22.10;;;;;;;7.57;100.00;99333.03;5023736;28;20055;-78
2022/09/29 07:32:09;;;;;;;42.92;21.83;;;;;;;7.69;100.00;99341.41;5020803;28;20038;-78
2022/09/29 07:34:34;;;;;;;41.27;23.37;;;;;;;7.63;100.00;99342.13;4985961;28;20068;-78
2022/09/29 07:37:00;;;;;;;45.83;23.13;;;;;;;7.63;100.00;99334.97;5015843;28;20420;-78
2022/09/29 07:39:25;;;;;;;41.23;22.03;;;;;;;7.69;100.00;99344.06;5001575;28;20454;-77
2022/09/29 07:41:51;;;;;;;42.27;22.50;;;;;;;7.75;100.00;99351.31;5015985;28;20026;-79
2022/09/29 07:44:16;;;;;;;50.70;21.90;;;;;;;7.76;100.00;99368.91;5000403;28;20402;-78
2022/09/29 07:46:42;;;;;;;47.15;22.95;;;;;;;7.86;100.00;99364.19;5006504;28;20112;-78
2022/09/29 07:49:07;;;;;;;43.10;22.33;;;;;;;7.90;100.00;99372.63;5002818;28;20087;-79
2022/09/29 07:51:33;;;;;;;42.53;22.80;;;;;;;7.89;100.00;99377.13;5017791;28;20041;-78
2022/09/29 07:54:02;;;;;;;40.67;22.90;;;;;;;7.95;100.00;99384.38;5016009;28;20288;-78
2022/09/29 07:56:28;;;;;;;38.97;22.40;;;;;;;7.71;100.00;99373.94;5019137;28;20033;-78
2022/09/29 07:58:53;;;;;;;49.40;24.77;;;;;;;7.86;100.00;99381.97;4999072;28;20395;-78
2022/09/29 08:01:19;;;;;;;48.65;25.42;;;;;;;7.83;100.00;99378.66;5016575;28;20073;-78
2022/09/29 08:03:51;;;;;;;48.70;25.55;;;;;;;7.87;100.00;99386.28;5018321;28;20034;-78
2022/09/29 08:06:17;;;;;;;46.47;23.15;;;;;;;7.87;100.00;99389.75;5017939;28;20037;-78
2022/09/29 08:08:42;;;;;;;52.03;25.20;;;;;;;7.76;100.00;99377.72;5022091;28;20026;-78
2022/09/29 08:11:11;;;;;;;50.40;25.83;;;;;;;7.88;100.00;99386.09;5016494;28;20033;-78
2022/09/29 08:13:36;;;;;;;50.28;25.60;;;;;;;8.07;100.00;99405.22;4984809;28;20036;-78
2022/09/29 08:16:05;;;;;;;53.63;29.05;;;;;;;8.06;100.00;99404.38;5015163;28;20038;-78
2022/09/29 08:18:32;;;;;;;46.55;24.73;;;;;;;8.15;100.00;99413.94;5007045;28;20033;-78
2022/09/29 08:20:57;;;;;;;46.92;26.15;;;;;;;8.14;100.00;99403.50;5015814;28;20034;-78
2022/09/29 08:23:23;;;;;;;46.43;24.37;;;;;;;8.15;100.00;99413.94;5017536;28;21214;-78
2022/09/29 08:25:49;;;;;;;46.57;25.60;;;;;;;8.23;100.00;99421.03;5018159;28;20676;-78
2022/09/29 08:28:15;;;;;;;47.03;24.42;;;;;;;8.02;100.00;99403.91;5018302;28;20042;-78
2022/09/29 08:30:41;;;;;;;43.33;23.38;;;;;;;8.13;100.00;99415.13;5017800;28;20030;-78
2022/09/29 08:33:11;;;;;;;53.30;25.87;;;;;;;8.22;100.00;99430.03;4998374;28;20034;-78
2022/09/29 08:35:37;;;;;;;45.63;24.13;;;;;;;8.25;100.00;99437.63;5000321;28;20033;-77
2022/09/29 08:38:02;;;;;;;48.63;24.45;;;;;;;8.31;100.00;99446.72;4997608;28;20100;-78
2022/09/29 08:40:30;;;;;;;45.30;25.23;;;;;;;8.39;100.00;99458.09;5017523;28;20033;-77
2022/09/29 08:43:21;;;;;;;43.60;24.58;;;;;;;8.42;100.00;99463.09;5005027;28;20022;-78
2022/09/29 08:46:06;;;;;;;44.22;21.90;;;;;;;8.58;100.00;99474.59;5014996;28;20037;-77
2022/09/29 08:48:36;;;;;;;41.80;22.83;;;;;;;8.59;100.00;99485.06;4997505;28;20043;-78
2022/09/29 08:51:10;;;;;;;43.72;21.75;;;;;;;8.40;100.00;99473.06;4997347;28;20034;-77
2022/09/29 08:53:42;;;;;;;42.53;21.15;;;;;;;8.53;100.00;99475.16;5017958;28;20406;-78
2022/09/29 08:56:15;;;;;;;37.40;21.58;;;;;;;8.47;100.00;99475.03;5014357;28;20029;-78
2022/09/29 08:58:40;;;;;;;45.05;24.58;;;;;;;8.40;100.00;99473.06;5015835;28;20029;-78
2022/09/29 09:01:12;;;;;;;44.33;24.97;;;;;;;8.47;100.00;99475.84;4997797;28;20046;-78
2022/09/29 09:04:08;;;;;;;44.53;23.10;;;;;;;8.45;100.00;99472.53;5017222;28;20025;-78
2022/09/29 09:07:00;;;;;;;42.78;24.50;;;;;;;8.33;100.00;99461.47;4984168;28;20475;-78
2022/09/29 09:09:44;;;;;;;51.08;25.05;;;;;;;8.58;100.00;99474.59;5017516;28;20033;-78
2022/09/29 09:12:43;;;;;;;43.72;23.17;;;;;;;8.64;100.00;99480.03;4997698;28;20427;-78
2022/09/29 09:15:31;;;;;;;44.15;25.27;;;;;;;8.65;100.00;99484.34;5013881;28;20034;-78
2022/09/29 09:18:21;;;;;;;47.03;25.50;;;;;;;8.52;100.00;99472.66;5013251;28;20065;-78
2022/09/29 09:21:19;;;;;;;46.50;24.48;;;;;;;8.61;100.00;99477.72;4996926;28;20635;-78
2022/09/29 09:23:50;;;;;;;46.55;25.52;;;;;;;8.41;100.00;99480.06;4990944;28;20120;-79
2022/09/29 09:26:17;;;;;;;47.47;24.92;;;;;;;8.47;100.00;99481.16;5016589;28;20049;-78
2022/09/29 09:28:54;;;;;;;51.50;27.45;;;;;;;8.58;100.00;99494.03;4987901;28;20033;-80
2022/09/29 09:31:34;;;;;;;43.80;24.98;;;;;;;8.53;100.00;99484.97;5003498;28;20049;-83
2022/09/29 09:34:12;;;;;;;52.58;26.83;;;;;;;8.56;100.00;99490.72;5017246;28;20076;-80
2022/09/29 09:36:54;;;;;;;48.17;25.20;;;;;;;8.65;100.00;99496.81;4998684;28;20041;-79
2022/09/29 09:39:33;;;;;;;46.03;26.17;;;;;;;8.86;100.00;99504.91;5017587;28;20041;-81
2022/09/29 09:42:02;;;;;;;40.60;23.05;;;;;;;8.86;100.00;99509.44;5015213;28;20554;-80
2022/09/29 09:45:13;;;;;;;38.10;23.65;;;;;;;8.95;100.00;99511.00;5018505;28;20497;-80
2022/09/29 09:47:49;;;;;;;33.60;21.00;;;;;;;8.98;100.00;99512.47;5017465;28;20068;-78
2022/09/29 09:50:17;;;;;;;35.20;18.73;;;;;;;8.84;100.00;99498.94;5007692;28;20228;-81
2022/09/29 09:52:58;;;;;;;35.05;19.42;;;;;;;9.00;100.00;99491.81;5018688;28;20471;-80
2022/09/29 09:55:25;;;;;;;31.23;18.60;;;;;;;8.94;100.00;99488.03;5024252;28;20136;-82
2022/09/29 09:58:09;;;;;;;33.70;18.83;;;;;;;9.01;100.00;99491.66;4985358;28;20032;-80
2022/09/29 10:00:43;;;;;;;30.20;18.80;;;;;;;9.02;100.00;99495.13;5000653;28;20059;-81
2022/09/29 10:03:09;;;;;;;32.25;18.48;;;;;;;9.02;100.00;99485.28;5020075;28;20029;-79
2022/09/29 10:05:40;;;;;;;24.98;15.73;;;;;;;8.73;100.00;99480.75;5010784;28;20041;-81
2022/09/29 10:08:11;;;;;;;30.38;17.45;;;;;;;9.00;100.00;99495.31;5021186;28;20038;-80
2022/09/29 10:10:40;;;;;;;24.27;15.13;;;;;;;9.02;100.00;99501.28;5023856;28;20029;-78
2022/09/29 10:13:09;;;;;;;27.20;16.13;;;;;;;9.18;100.00;99505.59;5012393;28;20506;-79
2022/09/29 10:15:42;;;;;;;28.10;16.30;;;;;;;9.12;100.00;99497.50;5007284;28;20046;-80
2022/09/29 10:18:20;;;;;;;27.55;14.55;;;;;;;8.95;100.00;99491.53;5005273;28;20041;-78
2022/09/29 10:20:45;;;;;;;26.23;15.05;;;;;;;8.92;100.00;99497.22;4986658;28;20037;-78
2022/09/29 10:23:19;;;;;;;29.63;16.95;;;;;;;9.05;100.00;99510.72;5011994;28;20084;-79
2022/09/29 10:25:54;;;;;;;28.58;17.27;;;;;;;9.03;100.00;99516.22;5020335;28;20478;-81
2022/09/29 10:28:22;;;;;;;22.98;14.70;;;;;;;9.01;100.00;99525.41;5015412;28;20096;-80
2022/09/29 10:30:47;;;;;;;18.92;11.70;;;;;;;8.91;100.00;99520.34;5014512;28;20501;-80
2022/09/29 10:33:19;;;;;;;16.65;11.48;;;;;;;8.91;100.00;99516.88;5013997;28;20038;-79
2022/09/29 10:35:47;;;;;;;18.48;11.30;;;;;;;9.00;100.00;99518.44;5004842;28;20042;-79
2022/09/29 10:38:24;;;;;;;12.50;7.85;;;;;;;8.98;100.00;99509.81;4987532;28;20021;-78
2022/09/29 10:40:56;;;;;;;14.13;8.05;;;;;;;9.05;100.00;99518.72;5014045;28;20342;-79
2022/09/29 10:43:25;;;;;;;11.27;7.25;;;;;;;8.97;100.00;99502.84;5014852;28;20532;-79
2022/09/29 10:45:57;;;;;;;11.60;7.60;;;;;;;9.10;100.00;99505.66;5000408;28;20502;-79
2022/09/29 10:48:24;;;;;;;14.85;9.13;;;;;;;9.11;100.00;99520.66;5018107;28;20427;-78
2022/09/29 10:50:51;;;;;;;13.00;8.55;;;;;;;9.20;100.00;99521.38;5000671;28;20033;-80
2022/09/29 10:53:34;;;;;;;12.02;7.88;;;;;;;9.27;100.00;99528.47;4997362;28;20030;-79
2022/09/29 10:56:07;;;;;;;12.57;8.57;;;;;;;9.12;100.00;99522.28;4996099;28;20088;-79
2022/09/29 10:58:41;;;;;;;12.65;8.77;;;;;;;9.06;100.00;99518.53;4987166;28;20711;-78
2022/09/29 11:01:11;;;;;;;12.68;8.38;;;;;;;8.98;100.00;99523.13;4995992;28;20042;-79
2022/09/29 11:03:49;;;;;;;15.13;8.98;;;;;;;8.96;100.00;99523.28;4997952;28;20104;-79
2022/09/29 11:06:15;;;;;;;16.83;10.63;;;;;;;9.10;100.00;99526.97;5016605;28;20049;-79
2022/09/29 11:08:57;;;;;;;;;;;;;;;9.12;100.00;99530.28;5014657;28;20083;-79
2022/09/29 11:11:26;;;;;;;15.20;9.63;;;;;;;9.12;100.00;99538.28;4998081;28;19924;-77
2022/09/29 11:13:52;;;;;;;14.80;9.60;;;;;;;9.19;100.00;99543.69;4996295;28;20029;-77
2022/09/29 11:16:22;;;;;;;;;;;;;;;9.12;100.00;99550.75;4998897;28;20072;-79
2022/09/29 11:18:52;;;;;;;17.50;10.85;;;;;;;9.13;100.00;99549.75;5017462;28;19960;-79
2022/09/29 11:21:23;;;;;;;14.82;9.57;;;;;;;9.08;100.00;99553.81;5014327;28;20087;-79
2022/09/29 11:24:03;;;;;;;15.95;10.38;;;;;;;9.13;100.00;99549.75;4996710;28;20034;-78
2022/09/29 11:26:43;;;;;;;15.52;10.02;;;;;;;9.17;100.00;99557.19;5016111;28;20367;-79
2022/09/29 11:29:14;;;;;;;22.67;12.68;;;;;;;9.32;100.00;99567.88;4995962;28;20038;-79
2022/09/29 11:32:25;;;;;;;20.92;11.02;;;;;;;9.45;100.00;99570.69;5014951;28;20095;-80
2022/09/29 11:35:17;;;;;;;17.67;10.88;;;;;;;9.29;100.00;99554.91;5013022;28;20364;-78
2022/09/29 11:37:45;;;;;;;15.48;9.98;;;;;;;9.26;100.00;99556.09;5011611;28;20104;-78